createdAt,value
2022-12-28T00:01:48.345Z,101523.16
2022-12-28T00:04:20.201Z,101521.34
2022-12-28T00:06:52.931Z,101520.53
2022-12-28T00:09:24.806Z,101513.97
2022-12-28T00:11:56.359Z,101515.97
2022-12-28T00:14:28.147Z,101510.84
2022-12-28T00:16:59.755Z,101505.66
2022-12-28T00:19:31.255Z,101502.03
2022-12-28T00:22:02.787Z,101496.75
2022-12-28T00:24:35.340Z,101495.31
2022-12-28T00:27:06.913Z,101480.97
2022-12-28T00:29:38.908Z,101480.16
2022-12-28T00:32:10.409Z,101478.03
2022-12-28T00:34:41.901Z,101479.66
2022-12-28T00:37:13.518Z,101480.03
2022-12-28T00:39:45.058Z,101487.94
2022-12-28T00:42:16.613Z,101495.38
2022-12-28T00:44:48.483Z,101491.13
2022-12-28T00:47:19.993Z,101473.00
2022-12-28T00:49:51.771Z,101465.41
2022-12-28T00:52:23.247Z,101473.69
2022-12-28T00:54:55.169Z,101473.31
2022-12-28T00:57:26.708Z,101463.75
2022-12-28T00:59:58.554Z,101462.25
2022-12-28T01:02:30.157Z,101475.44
2022-12-28T01:05:01.717Z,101487.66
2022-12-28T01:07:33.187Z,101462.25
2022-12-28T01:10:04.733Z,101459.28
2022-12-28T01:12:38.272Z,101463.44
2022-12-28T01:15:10.418Z,101465.25
2022-12-28T01:17:41.983Z,101460.78
2022-12-28T01:20:13.951Z,101457.31
2022-12-28T01:22:45.460Z,101446.59
2022-12-28T01:25:17.252Z,101453.69
2022-12-28T01:27:48.795Z,101451.06
2022-12-28T01:30:20.643Z,101446.41
2022-12-28T01:32:52.146Z,101440.00
2022-12-28T01:35:23.964Z,101431.56
2022-12-28T01:37:55.442Z,101433.91
2022-12-28T01:40:27.439Z,101433.56
2022-12-28T01:42:58.925Z,101422.84
2022-12-28T01:45:30.863Z,101423.34
2022-12-28T01:48:02.345Z,101422.84
2022-12-28T01:50:34.166Z,101412.09
2022-12-28T01:53:05.665Z,101408.59
2022-12-28T01:55:37.482Z,101402.00
2022-12-28T01:58:08.999Z,101398.53
2022-12-28T02:00:40.951Z,101390.56
2022-12-28T02:03:12.501Z,101388.91
2022-12-28T02:05:44.507Z,101383.28
2022-12-28T02:08:16.001Z,101378.66
2022-12-28T02:10:47.913Z,101367.75
2022-12-28T02:13:19.414Z,101361.78
2022-12-28T02:15:51.223Z,101356.69
2022-12-28T02:18:22.689Z,101349.25
2022-12-28T02:20:54.580Z,101347.28
2022-12-28T02:23:26.134Z,101341.78
2022-12-28T02:25:58.098Z,101338.69
2022-12-28T02:28:29.652Z,101331.72
2022-12-28T02:31:01.603Z,101327.44
2022-12-28T02:33:33.221Z,101320.50
2022-12-28T02:36:05.093Z,101317.53
2022-12-28T02:38:36.570Z,101310.28
2022-12-28T02:41:08.443Z,101305.50
2022-12-28T02:43:39.938Z,101300.41
2022-12-28T02:46:30.440Z,101296.28
2022-12-28T02:49:34.689Z,101296.44
2022-12-28T02:52:06.207Z,101291.47
2022-12-28T02:54:56.718Z,101284.56
2022-12-28T02:57:28.232Z,101277.13
2022-12-28T03:00:00.111Z,101273.00
2022-12-28T03:02:31.789Z,101266.59
2022-12-28T03:05:03.748Z,101258.03
2022-12-28T03:07:53.899Z,101252.56
2022-12-28T03:10:25.746Z,101243.84
2022-12-28T03:12:57.229Z,101237.91
2022-12-28T03:15:31.685Z,101233.13
2022-12-28T03:18:21.864Z,101225.72
2022-12-28T03:21:12.261Z,101221.59
2022-12-28T03:24:02.513Z,101219.31
2022-12-28T03:26:52.672Z,101212.88
2022-12-28T03:29:42.763Z,101211.88
2022-12-28T03:32:14.228Z,101205.63
2022-12-28T03:34:46.058Z,101201.84
2022-12-28T03:37:17.560Z,101210.72
2022-12-28T03:39:49.540Z,101194.44
2022-12-28T03:42:39.563Z,101189.16
2022-12-28T03:45:11.426Z,101180.72
2022-12-28T03:47:42.899Z,101167.53
2022-12-28T03:50:14.826Z,101170.34
2022-12-28T03:52:46.311Z,101159.31
2022-12-28T03:55:18.138Z,101151.56
2022-12-28T03:57:49.636Z,101157.50
2022-12-28T04:00:21.135Z,101153.06
2022-12-28T04:02:52.782Z,101152.38
2022-12-28T04:05:24.475Z,101147.13
2022-12-28T04:07:56.208Z,101149.75
2022-12-28T04:10:27.749Z,101144.16
2022-12-28T04:12:59.528Z,101127.69
2022-12-28T04:15:31.066Z,101128.03
2022-12-28T04:18:02.766Z,101132.13
2022-12-28T04:20:34.236Z,101115.50
2022-12-28T04:23:05.946Z,101116.66
2022-12-28T04:25:37.460Z,101112.22
2022-12-28T04:28:09.193Z,101106.13
2022-12-28T04:30:40.692Z,101094.78
2022-12-28T04:33:12.392Z,101106.63
2022-12-28T04:35:43.873Z,101095.44
2022-12-28T04:38:15.946Z,101091.16
2022-12-28T04:40:47.539Z,101084.25
2022-12-28T04:43:19.377Z,101083.94
2022-12-28T04:45:50.854Z,101085.56
2022-12-28T04:48:22.384Z,101083.09
2022-12-28T04:50:53.868Z,101078.66
2022-12-28T04:53:25.577Z,101082.94
2022-12-28T04:55:59.232Z,101082.94
2022-12-28T04:58:30.976Z,101085.13
2022-12-28T05:01:02.550Z,101085.44
2022-12-28T05:03:34.470Z,101100.09
2022-12-28T05:06:06.510Z,101082.66
2022-12-28T05:08:38.028Z,101067.13
2022-12-28T05:11:09.844Z,101059.94
2022-12-28T05:13:41.356Z,101060.75
2022-12-28T05:16:12.918Z,101070.63
2022-12-28T05:18:44.542Z,101067.00
2022-12-28T05:21:16.430Z,101061.91
2022-12-28T05:23:47.954Z,101072.13
2022-12-28T05:26:19.849Z,101062.56
2022-12-28T05:28:51.358Z,101057.97
2022-12-28T05:31:23.409Z,101062.75
2022-12-28T05:33:54.971Z,101061.91
2022-12-28T05:36:26.702Z,101054.34
2022-12-28T05:38:58.363Z,101046.78
2022-12-28T05:41:30.087Z,101053.03
2022-12-28T05:44:01.640Z,101050.88
2022-12-28T05:46:33.579Z,101039.34
2022-12-28T05:49:05.064Z,101040.34
2022-12-28T05:51:39.557Z,101027.16
2022-12-28T05:54:11.428Z,101032.09
2022-12-28T05:56:44.172Z,101021.41
2022-12-28T05:59:15.731Z,101013.16
2022-12-28T06:01:47.898Z,101004.75
2022-12-28T06:04:19.565Z,101005.59
2022-12-28T06:06:51.570Z,101008.88
2022-12-28T06:09:23.054Z,100994.72
2022-12-28T06:11:54.855Z,101001.31
2022-12-28T06:14:26.362Z,100999.69
2022-12-28T06:16:58.297Z,100996.38
2022-12-28T06:19:29.927Z,100989.13
2022-12-28T06:22:01.740Z,100982.22
2022-12-28T06:24:33.229Z,100983.34
2022-12-28T06:27:04.994Z,100982.53
2022-12-28T06:29:36.459Z,100971.31
2022-12-28T06:32:08.381Z,100972.63
2022-12-28T06:34:39.959Z,100980.84
2022-12-28T06:37:11.817Z,100973.59
2022-12-28T06:39:43.317Z,100971.44
2022-12-28T06:42:15.144Z,100965.16
2022-12-28T06:44:46.951Z,100965.84
2022-12-28T06:47:18.871Z,100967.81
2022-12-28T06:49:50.395Z,100960.72
2022-12-28T06:52:22.382Z,100960.06
2022-12-28T06:54:53.876Z,100950.38
2022-12-28T06:57:25.378Z,100946.09
2022-12-28T06:59:56.852Z,100931.44
2022-12-28T07:02:28.767Z,100931.75
2022-12-28T07:05:00.355Z,100890.81
2022-12-28T07:07:32.110Z,100929.44
2022-12-28T07:10:04.357Z,100929.75
2022-12-28T07:12:35.884Z,100924.50
2022-12-28T07:15:07.380Z,100916.78
2022-12-28T07:17:39.140Z,100912.97
2022-12-28T07:20:10.679Z,100903.06
2022-12-28T07:22:42.185Z,100907.34
2022-12-28T07:25:13.703Z,100907.19
2022-12-28T07:27:45.681Z,100908.66
2022-12-28T07:30:17.164Z,100900.91
2022-12-28T07:32:48.765Z,100903.88
2022-12-28T07:35:20.317Z,100893.00
2022-12-28T07:37:52.092Z,100884.41
2022-12-28T07:40:23.588Z,100884.41
2022-12-28T07:42:55.418Z,100878.28
2022-12-28T07:45:26.955Z,100876.16
2022-12-28T07:47:58.860Z,100869.72
2022-12-28T07:50:37.515Z,100870.19
2022-12-28T07:53:09.734Z,100866.38
2022-12-28T07:55:41.240Z,100869.66
2022-12-28T07:58:13.147Z,100875.25
2022-12-28T08:00:44.635Z,100867.31
2022-12-28T08:03:16.568Z,100872.25
2022-12-28T08:05:48.078Z,100872.25
2022-12-28T08:08:19.925Z,100866.44
2022-12-28T08:10:51.413Z,100861.34
2022-12-28T08:13:23.262Z,100861.19
2022-12-28T08:15:54.899Z,100862.66
2022-12-28T08:18:26.732Z,100860.34
2022-12-28T08:20:58.243Z,100852.06
2022-12-28T08:23:29.849Z,100849.53
2022-12-28T08:26:01.343Z,100848.19
2022-12-28T08:28:33.171Z,100838.09
2022-12-28T08:31:04.684Z,100835.59
2022-12-28T08:33:36.653Z,100826.13
2022-12-28T08:36:09.095Z,100820.66
2022-12-28T08:38:40.671Z,100820.84
2022-12-28T08:41:12.523Z,100812.19
2022-12-28T08:43:43.988Z,100815.38
2022-12-28T08:46:17.015Z,100807.19
2022-12-28T08:48:48.653Z,100806.09
2022-12-28T08:51:20.424Z,100814.25
2022-12-28T08:53:51.907Z,100817.34
2022-12-28T08:56:23.751Z,100814.88
2022-12-28T08:58:55.256Z,100807.88
2022-12-28T09:01:27.415Z,100803.69
2022-12-28T09:03:58.983Z,100803.59
2022-12-28T09:06:30.766Z,100803.06
2022-12-28T09:09:06.200Z,100791.88
2022-12-28T09:11:38.537Z,100797.03
2022-12-28T09:14:10.050Z,100803.91
2022-12-28T09:16:41.885Z,100791.69
2022-12-28T09:19:13.445Z,100794.59
2022-12-28T09:21:45.642Z,100798.16
2022-12-28T09:24:17.133Z,100798.31
2022-12-28T09:26:48.758Z,100784.84
2022-12-28T09:29:20.254Z,100783.34
2022-12-28T09:31:52.069Z,100779.25
2022-12-28T09:34:35.711Z,100768.31
2022-12-28T09:37:08.971Z,100755.31
2022-12-28T09:39:40.451Z,100760.66
2022-12-28T09:42:12.363Z,100757.09
2022-12-28T09:44:43.889Z,100760.31
2022-12-28T09:47:17.614Z,100767.41
2022-12-28T09:49:49.184Z,100751.63
2022-12-28T09:52:21.176Z,100746.41
2022-12-28T09:54:52.702Z,100746.66
2022-12-28T09:57:24.425Z,100745.66
2022-12-28T09:59:55.971Z,100740.03
2022-12-28T10:02:27.984Z,100743.66
2022-12-28T10:04:59.601Z,100736.81
2022-12-28T10:07:31.125Z,100723.47
2022-12-28T10:10:02.605Z,100735.75
2022-12-28T10:12:34.607Z,100735.00
2022-12-28T10:15:06.275Z,100717.69
2022-12-28T10:17:37.789Z,100722.50
2022-12-28T10:20:09.266Z,100719.94
2022-12-28T10:22:46.398Z,100727.09
2022-12-28T10:25:21.231Z,100726.16
2022-12-28T10:27:53.049Z,100717.69
2022-12-28T10:30:26.999Z,100718.25
2022-12-28T10:33:02.989Z,100715.28
2022-12-28T10:35:35.036Z,100707.84
2022-12-28T10:38:07.718Z,100703.75
2022-12-28T10:40:39.618Z,100699.59
2022-12-28T10:43:11.421Z,100699.91
2022-12-28T10:45:43.002Z,100705.38
2022-12-28T10:48:14.987Z,100703.63
2022-12-28T10:50:46.585Z,100691.91
2022-12-28T10:53:18.428Z,100685.41
2022-12-28T10:55:49.955Z,100678.94
2022-12-28T10:58:31.133Z,100679.97
2022-12-28T11:01:03.729Z,100673.63
2022-12-28T11:03:36.102Z,100674.03
2022-12-28T11:06:07.624Z,100672.09
2022-12-28T11:08:40.092Z,100670.66
2022-12-28T11:11:11.617Z,100670.16
2022-12-28T11:13:43.508Z,100667.56
2022-12-28T11:16:15.174Z,100667.19
2022-12-28T11:18:47.104Z,100653.56
2022-12-28T11:21:18.591Z,100655.03
2022-12-28T11:23:50.642Z,100653.16
2022-12-28T11:26:22.222Z,100654.78
2022-12-28T11:28:54.246Z,100651.19
2022-12-28T11:31:25.776Z,100657.28
2022-12-28T11:33:57.706Z,100659.38
2022-12-28T11:36:29.219Z,100643.47
2022-12-28T11:39:01.131Z,100640.66
2022-12-28T11:41:34.061Z,100638.84
2022-12-28T11:44:05.934Z,100638.03
2022-12-28T11:46:37.483Z,100634.91
2022-12-28T11:49:09.508Z,100640.25
2022-12-28T11:51:41.103Z,100637.81
2022-12-28T11:54:14.220Z,100637.00
2022-12-28T11:56:45.738Z,100623.91
2022-12-28T11:59:17.771Z,100632.09
2022-12-28T12:01:49.395Z,100634.97
2022-12-28T12:04:21.007Z,100636.19
2022-12-28T12:06:52.599Z,100627.22
2022-12-28T12:09:25.974Z,100619.47
2022-12-28T12:11:59.061Z,100607.22
2022-12-28T12:14:30.923Z,100621.31
2022-12-28T12:17:05.579Z,100606.00
2022-12-28T12:19:38.306Z,100610.06
2022-12-28T12:22:09.827Z,100614.19
2022-12-28T12:24:41.704Z,100610.50
2022-12-28T12:27:14.392Z,100595.34
2022-12-28T12:29:46.391Z,100605.78
2022-12-28T12:32:17.902Z,100599.44
2022-12-28T12:34:49.454Z,100597.81
2022-12-28T12:37:20.962Z,100599.44
2022-12-28T12:39:52.904Z,100596.59
2022-12-28T12:42:24.528Z,100596.16
2022-12-28T12:44:56.261Z,100589.63
2022-12-28T12:47:28.055Z,100587.59
2022-12-28T12:49:59.634Z,100581.22
2022-12-28T12:52:31.290Z,100578.19
2022-12-28T12:55:02.814Z,100583.66
2022-12-28T12:57:34.779Z,100571.19
2022-12-28T13:00:06.735Z,100568.75
2022-12-28T13:02:38.779Z,100580.28
2022-12-28T13:05:10.447Z,100570.13
2022-12-28T13:07:42.399Z,100570.81
2022-12-28T13:10:13.969Z,100574.44
2022-12-28T13:12:45.822Z,100574.97
2022-12-28T13:15:17.366Z,100562.19
2022-12-28T13:17:50.144Z,100568.69
2022-12-28T13:20:23.611Z,100566.34
2022-12-28T13:22:56.355Z,100561.38
2022-12-28T13:25:28.010Z,100564.25
2022-12-28T13:27:59.895Z,100566.72
2022-12-28T13:30:31.473Z,100569.78
2022-12-28T13:33:03.667Z,100565.75
2022-12-28T13:35:35.215Z,100551.41
2022-12-28T13:38:07.398Z,100553.06
2022-12-28T13:40:38.873Z,100555.28
2022-12-28T13:43:12.048Z,100561.41
2022-12-28T13:45:49.173Z,100565.47
2022-12-28T13:48:22.717Z,100558.09
2022-12-28T13:50:54.691Z,100568.69
2022-12-28T13:53:26.707Z,100570.31
2022-12-28T13:55:58.252Z,100560.97
2022-12-28T13:58:30.085Z,100558.94
2022-12-28T14:01:01.649Z,100561.78
2022-12-28T14:03:39.375Z,100562.66
2022-12-28T14:06:12.240Z,100564.31
2022-12-28T14:08:43.741Z,100553.47
2022-12-28T14:11:15.242Z,100551.66
2022-12-28T14:13:47.103Z,100560.47
2022-12-28T14:16:18.834Z,100548.44
2022-12-28T14:18:50.872Z,100546.41
2022-12-28T14:21:22.356Z,100555.34
2022-12-28T14:23:54.211Z,100561.50
2022-12-28T14:26:25.742Z,100563.75
2022-12-28T14:28:57.862Z,100559.47
2022-12-28T14:31:29.387Z,100564.56
2022-12-28T14:34:01.033Z,100566.81
2022-12-28T14:36:32.616Z,100563.13
2022-12-28T14:39:05.537Z,100568.66
2022-12-28T14:41:38.338Z,100564.34
2022-12-28T14:44:10.011Z,100562.91
2022-12-28T14:46:42.726Z,100556.78
2022-12-28T14:49:14.349Z,100562.91
2022-12-28T14:51:45.878Z,100554.53
2022-12-28T14:54:17.888Z,100567.38
2022-12-28T14:56:49.499Z,100561.91
2022-12-28T14:59:21.484Z,100564.31
2022-12-28T15:01:53.127Z,100562.09
2022-12-28T15:04:24.680Z,100570.03
2022-12-28T15:06:56.222Z,100565.75
2022-12-28T15:09:27.748Z,100566.56
2022-12-28T15:11:59.836Z,100558.41
2022-12-28T15:14:33.273Z,100550.44
2022-12-28T15:17:04.929Z,100564.53
2022-12-28T15:19:36.906Z,100549.63
2022-12-28T15:22:08.447Z,100558.59
2022-12-28T15:24:41.758Z,100545.97
2022-12-28T15:27:13.361Z,100548.81
2022-12-28T15:30:05.104Z,100544.75
2022-12-28T15:32:36.686Z,100547.19
2022-12-28T15:35:08.219Z,100549.63
2022-12-28T15:37:39.767Z,100540.25
2022-12-28T15:40:11.692Z,100543.72
2022-12-28T15:42:43.197Z,100545.97
2022-12-28T15:45:14.760Z,100545.19
2022-12-28T15:47:46.270Z,100550.06
2022-12-28T15:50:18.035Z,100446.81
2022-12-28T15:52:49.610Z,100553.53
2022-12-28T15:55:21.559Z,100558.03
2022-12-28T15:57:53.075Z,100547.41
2022-12-28T16:00:24.893Z,100561.28
2022-12-28T16:02:56.936Z,100560.69
2022-12-28T16:05:28.985Z,100545.16
2022-12-28T16:08:00.515Z,100536.19
2022-12-28T16:10:32.392Z,100545.56
2022-12-28T16:13:04.085Z,100539.25
2022-12-28T16:15:35.859Z,100545.16
2022-12-28T16:18:09.628Z,100543.13
2022-12-28T16:20:41.513Z,100543.53
2022-12-28T16:23:13.062Z,100536.38
2022-12-28T16:25:44.934Z,100543.53
2022-12-28T16:28:16.545Z,100547.00
2022-12-28T16:30:48.788Z,100537.81
2022-12-28T16:33:20.395Z,100548.22
2022-12-28T16:35:57.711Z,100543.53
2022-12-28T16:38:31.531Z,100544.94
2022-12-28T16:41:03.094Z,100535.75
2022-12-28T16:43:34.973Z,100536.78
2022-12-28T16:46:06.674Z,100539.44
2022-12-28T16:48:38.677Z,100537.41
2022-12-28T16:51:10.250Z,100535.34
2022-12-28T16:53:42.230Z,100542.09
2022-12-28T16:56:13.782Z,100533.13
2022-12-28T16:58:49.092Z,100541.69
2022-12-28T17:01:21.273Z,100547.59
2022-12-28T17:03:54.513Z,100541.28
2022-12-28T17:06:27.892Z,100538.63
2022-12-28T17:08:59.575Z,100538.03
2022-12-28T17:11:31.280Z,100539.06
2022-12-28T17:14:03.072Z,100538.66
2022-12-28T17:16:34.700Z,100538.66
2022-12-28T17:19:06.447Z,100540.28
2022-12-28T17:21:38.061Z,100539.88
2022-12-28T17:24:10.038Z,100534.97
2022-12-28T17:26:41.569Z,100531.28
2022-12-28T17:29:13.460Z,100518.22
2022-12-28T17:31:45.280Z,100523.31
2022-12-28T17:34:16.902Z,100521.69
2022-12-28T17:36:48.479Z,100519.47
2022-12-28T17:39:20.316Z,100524.78
2022-12-28T17:41:51.897Z,100515.78
2022-12-28T17:44:23.828Z,100521.91
2022-12-28T17:46:55.367Z,100514.34
2022-12-28T17:49:27.314Z,100509.66
2022-12-28T17:51:58.887Z,100511.28
2022-12-28T17:54:30.729Z,100501.28
2022-12-28T17:57:02.323Z,100500.25
2022-12-28T17:59:33.919Z,100498.81
2022-12-28T18:02:10.006Z,100494.34
2022-12-28T18:04:41.968Z,100488.81
2022-12-28T18:07:13.493Z,100495.97
2022-12-28T18:09:45.387Z,100499.00
2022-12-28T18:12:17.031Z,100491.66
2022-12-28T18:14:48.671Z,100485.53
2022-12-28T18:17:23.331Z,100484.13
2022-12-28T18:19:56.430Z,100489.81
2022-12-28T18:22:28.103Z,100479.41
2022-12-28T18:25:00.037Z,100466.78
2022-12-28T18:27:31.585Z,100472.25
2022-12-28T18:30:03.485Z,100466.34
2022-12-28T18:32:35.042Z,100478.41
2022-12-28T18:35:06.927Z,100468.19
2022-12-28T18:37:38.518Z,100474.53
2022-12-28T18:40:10.446Z,100473.94
2022-12-28T18:42:42.024Z,100463.09
2022-12-28T18:45:13.904Z,100465.56
2022-12-28T18:47:45.500Z,100466.19
2022-12-28T18:50:17.950Z,100462.91
2022-12-28T18:52:50.199Z,100466.38
2022-12-28T18:55:22.150Z,100463.53
2022-12-28T18:57:53.755Z,100467.19
2022-12-28T19:00:25.648Z,100465.16
2022-12-28T19:02:57.366Z,100464.75
2022-12-28T19:05:29.368Z,100465.97
2022-12-28T19:08:01.206Z,100469.06
2022-12-28T19:10:33.012Z,100461.31
2022-12-28T19:13:04.555Z,100460.91
2022-12-28T19:15:36.498Z,100470.88
2022-12-28T19:18:08.050Z,100462.53
2022-12-28T19:20:39.886Z,100467.63
2022-12-28T19:23:11.464Z,100458.25
2022-12-28T19:25:43.424Z,100464.56
2022-12-28T19:28:14.964Z,100465.81
2022-12-28T19:30:46.867Z,100459.88
2022-12-28T19:33:18.491Z,100461.50
2022-12-28T19:35:50.111Z,100454.19
2022-12-28T19:38:21.611Z,100453.56
2022-12-28T19:40:53.487Z,100438.28
2022-12-28T19:43:25.025Z,100444.78
2022-12-28T19:45:56.890Z,100427.25
2022-12-28T19:48:28.423Z,100415.03
2022-12-28T19:51:00.402Z,100416.84
2022-12-28T19:53:31.946Z,100406.47
2022-12-28T19:56:03.743Z,100393.81
2022-12-28T19:58:35.351Z,100382.59
2022-12-28T20:01:07.333Z,100379.72
2022-12-28T20:03:39.107Z,100379.31
2022-12-28T20:06:11.303Z,100364.63
2022-12-28T20:08:42.850Z,100380.34
2022-12-28T20:11:14.741Z,100380.34
2022-12-28T20:13:46.275Z,100384.81
2022-12-28T20:16:18.346Z,100394.00
2022-12-28T20:18:49.916Z,100400.72
2022-12-28T20:21:22.256Z,100406.84
2022-12-28T20:23:53.861Z,100403.38
2022-12-28T20:26:27.307Z,100405.63
2022-12-28T20:28:58.884Z,100398.28
2022-12-28T20:31:31.382Z,100402.34
2022-12-28T20:34:02.951Z,100392.56
2022-12-28T20:36:34.671Z,100390.53
2022-12-28T20:39:06.236Z,100380.97
2022-12-28T20:41:56.759Z,100376.25
2022-12-28T20:44:30.022Z,100362.00
2022-12-28T20:47:04.870Z,100361.16
2022-12-28T20:49:36.487Z,100356.88
2022-12-28T20:52:08.484Z,100361.97
2022-12-28T20:54:40.005Z,100349.78
2022-12-28T20:57:11.784Z,100358.94
2022-12-28T20:59:43.330Z,100351.81
2022-12-28T21:02:16.311Z,100350.78
2022-12-28T21:04:48.221Z,100341.22
2022-12-28T21:07:19.760Z,100334.47
2022-12-28T21:09:51.870Z,100324.88
2022-12-28T21:12:23.388Z,100316.34
2022-12-28T21:14:54.991Z,100308.97
2022-12-28T21:17:26.515Z,100312.25
2022-12-28T21:19:58.135Z,100298.16
2022-12-28T21:22:29.666Z,100310.22
2022-12-28T21:25:01.204Z,100285.53
2022-12-28T21:27:32.721Z,100284.94
2022-12-28T21:30:04.717Z,100278.81
2022-12-28T21:32:36.331Z,100274.72
2022-12-28T21:35:07.881Z,100269.63
2022-12-28T21:37:39.404Z,100268.00
2022-12-28T21:40:11.925Z,100264.94
2022-12-28T21:42:43.494Z,100262.06
2022-12-28T21:45:15.438Z,100258.41
2022-12-28T21:47:46.941Z,100254.34
2022-12-28T21:50:18.858Z,100247.59
2022-12-28T21:52:50.412Z,100247.59
2022-12-28T21:55:40.730Z,100237.59
2022-12-28T21:58:12.254Z,100233.91
2022-12-28T22:01:02.832Z,100224.53
2022-12-28T22:03:53.365Z,100217.97
2022-12-28T22:06:24.900Z,100212.03
2022-12-28T22:09:15.124Z,100198.78
2022-12-28T22:12:05.470Z,100202.84
2022-12-28T22:14:37.093Z,100195.88
2022-12-28T22:17:14.117Z,100191.19
2022-12-28T22:19:46.067Z,100194.84
2022-12-28T22:22:17.970Z,100192.59
2022-12-28T22:24:49.570Z,100185.22
2022-12-28T22:27:21.453Z,100189.50
2022-12-28T22:29:53.087Z,100179.06
2022-12-28T22:32:24.903Z,100190.09
2022-12-28T22:34:56.464Z,100177.22
2022-12-28T22:37:28.215Z,100180.28
2022-12-28T22:39:59.779Z,100170.84
2022-12-28T22:42:31.604Z,100167.34
2022-12-28T22:45:03.132Z,100167.94
2022-12-28T22:47:34.988Z,100168.09
2022-12-28T22:50:06.607Z,100163.41
2022-12-28T22:52:38.514Z,100160.94
2022-12-28T22:55:10.070Z,100162.13
2022-12-28T22:57:42.100Z,100160.06
2022-12-28T23:00:13.647Z,100165.00
2022-12-28T23:02:46.348Z,100159.91
2022-12-28T23:05:18.115Z,100154.38
2022-12-28T23:07:49.967Z,100154.38
2022-12-28T23:10:22.480Z,100153.19
2022-12-28T23:12:53.994Z,100143.19
2022-12-28T23:15:25.909Z,100137.28
2022-12-28T23:18:17.408Z,100133.28
2022-12-28T23:21:08.373Z,100124.50
2022-12-28T23:23:58.600Z,100130.63
2022-12-28T23:26:49.080Z,100119.03
2022-12-28T23:29:24.291Z,100118.44
2022-12-28T23:31:59.330Z,100115.41
2022-12-28T23:34:30.860Z,100111.34
2022-12-28T23:37:02.828Z,100110.69
2022-12-28T23:39:34.442Z,100105.66
2022-12-28T23:42:06.337Z,100095.69
2022-12-28T23:44:37.872Z,100096.53
2022-12-28T23:47:09.724Z,100096.75
2022-12-28T23:49:41.233Z,100088.78
2022-12-28T23:52:13.072Z,100087.31
2022-12-28T23:54:44.690Z,100084.50
2022-12-28T23:57:16.508Z,100077.75
2022-12-28T23:59:48.052Z,100078.19
